sensor_id;sensor_type;location;lat;lon;timestamp;P1;durP1;ratioP1;P2;durP2;ratioP2
30380;SDS011;17169;50.966;11.038;2023-05-14T00:00:41;11.50;;;6.70;;
30380;SDS011;17169;50.966;11.038;2023-05-14T00:03:44;9.02;;;6.03;;
30380;SDS011;17169;50.966;11.038;2023-05-14T00:06:47;9.88;;;6.45;;
30380;SDS011;17169;50.966;11.038;2023-05-14T00:09:49;14.98;;;7.40;;
30380;SDS011;17169;50.966;11.038;2023-05-14T00:12:51;11.10;;;7.07;;
30380;SDS011;17169;50.966;11.038;2023-05-14T00:15:54;9.55;;;6.13;;
30380;SDS011;17169;50.966;11.038;2023-05-14T00:18:58;9.68;;;6.78;;
30380;SDS011;17169;50.966;11.038;2023-05-14T00:22:00;9.55;;;6.25;;
30380;SDS011;17169;50.966;11.038;2023-05-14T00:25:03;11.05;;;6.50;;
30380;SDS011;17169;50.966;11.038;2023-05-14T00:28:06;10.52;;;5.55;;
30380;SDS011;17169;50.966;11.038;2023-05-14T00:31:08;9.70;;;5.47;;
30380;SDS011;17169;50.966;11.038;2023-05-14T00:34:12;12.43;;;5.35;;
30380;SDS011;17169;50.966;11.038;2023-05-14T00:37:14;7.22;;;5.25;;
30380;SDS011;17169;50.966;11.038;2023-05-14T00:40:16;6.93;;;5.15;;
30380;SDS011;17169;50.966;11.038;2023-05-14T00:43:19;9.60;;;6.53;;
30380;SDS011;17169;50.966;11.038;2023-05-14T00:46:22;10.85;;;6.93;;
30380;SDS011;17169;50.966;11.038;2023-05-14T00:49:25;9.77;;;7.05;;
30380;SDS011;17169;50.966;11.038;2023-05-14T00:52:28;9.93;;;6.90;;
30380;SDS011;17169;50.966;11.038;2023-05-14T00:55:31;10.80;;;6.97;;
30380;SDS011;17169;50.966;11.038;2023-05-14T00:58:34;8.48;;;6.95;;
30380;SDS011;17169;50.966;11.038;2023-05-14T01:01:36;12.15;;;7.28;;
30380;SDS011;17169;50.966;11.038;2023-05-14T01:04:40;10.50;;;7.13;;
30380;SDS011;17169;50.966;11.038;2023-05-14T01:07:45;10.27;;;7.38;;
30380;SDS011;17169;50.966;11.038;2023-05-14T01:10:56;11.52;;;7.47;;
30380;SDS011;17169;50.966;11.038;2023-05-14T01:14:06;8.93;;;7.65;;
30380;SDS011;17169;50.966;11.038;2023-05-14T01:17:13;8.57;;;7.60;;
30380;SDS011;17169;50.966;11.038;2023-05-14T01:20:20;12.55;;;7.78;;
30380;SDS011;17169;50.966;11.038;2023-05-14T01:23:24;9.77;;;8.02;;
30380;SDS011;17169;50.966;11.038;2023-05-14T01:26:27;12.20;;;8.15;;
30380;SDS011;17169;50.966;11.038;2023-05-14T01:29:31;19.77;;;8.15;;
30380;SDS011;17169;50.966;11.038;2023-05-14T01:32:35;24.85;;;15.60;;
30380;SDS011;17169;50.966;11.038;2023-05-14T01:35:39;10.77;;;7.88;;
30380;SDS011;17169;50.966;11.038;2023-05-14T01:38:43;17.70;;;7.35;;
30380;SDS011;17169;50.966;11.038;2023-05-14T01:41:46;9.90;;;7.95;;
30380;SDS011;17169;50.966;11.038;2023-05-14T01:44:50;9.95;;;8.00;;
30380;SDS011;17169;50.966;11.038;2023-05-14T01:47:52;10.55;;;8.82;;
30380;SDS011;17169;50.966;11.038;2023-05-14T01:50:55;10.70;;;8.50;;
30380;SDS011;17169;50.966;11.038;2023-05-14T01:53:59;10.75;;;7.80;;
30380;SDS011;17169;50.966;11.038;2023-05-14T01:57:01;10.48;;;7.70;;
30380;SDS011;17169;50.966;11.038;2023-05-14T02:00:04;11.73;;;8.10;;
30380;SDS011;17169;50.966;11.038;2023-05-14T02:03:07;10.77;;;8.75;;
30380;SDS011;17169;50.966;11.038;2023-05-14T02:06:09;10.45;;;8.45;;
30380;SDS011;17169;50.966;11.038;2023-05-14T02:09:13;11.23;;;8.32;;
30380;SDS011;17169;50.966;11.038;2023-05-14T02:12:15;11.27;;;8.00;;
30380;SDS011;17169;50.966;11.038;2023-05-14T02:15:18;10.25;;;8.60;;
30380;SDS011;17169;50.966;11.038;2023-05-14T02:18:20;16.35;;;8.07;;
30380;SDS011;17169;50.966;11.038;2023-05-14T02:21:23;9.68;;;8.00;;
30380;SDS011;17169;50.966;11.038;2023-05-14T02:24:26;11.68;;;8.20;;
30380;SDS011;17169;50.966;11.038;2023-05-14T02:27:29;12.82;;;8.65;;
30380;SDS011;17169;50.966;11.038;2023-05-14T02:30:31;12.45;;;7.75;;
30380;SDS011;17169;50.966;11.038;2023-05-14T02:33:33;11.13;;;8.07;;
30380;SDS011;17169;50.966;11.038;2023-05-14T02:36:36;12.07;;;8.40;;
30380;SDS011;17169;50.966;11.038;2023-05-14T02:39:39;11.35;;;8.02;;
30380;SDS011;17169;50.966;11.038;2023-05-14T02:42:42;12.30;;;8.70;;
30380;SDS011;17169;50.966;11.038;2023-05-14T02:45:44;10.73;;;8.55;;
30380;SDS011;17169;50.966;11.038;2023-05-14T02:48:46;10.52;;;8.43;;
30380;SDS011;17169;50.966;11.038;2023-05-14T02:51:49;10.15;;;8.75;;
30380;SDS011;17169;50.966;11.038;2023-05-14T02:54:55;12.18;;;9.10;;
30380;SDS011;17169;50.966;11.038;2023-05-14T02:57:57;11.07;;;7.95;;
30380;SDS011;17169;50.966;11.038;2023-05-14T03:00:59;10.73;;;8.82;;
30380;SDS011;17169;50.966;11.038;2023-05-14T03:04:02;10.93;;;8.52;;
30380;SDS011;17169;50.966;11.038;2023-05-14T03:07:04;12.20;;;9.32;;
30380;SDS011;17169;50.966;11.038;2023-05-14T03:10:08;11.75;;;9.70;;
30380;SDS011;17169;50.966;11.038;2023-05-14T03:13:11;11.10;;;8.90;;
30380;SDS011;17169;50.966;11.038;2023-05-14T03:16:17;12.95;;;9.70;;
30380;SDS011;17169;50.966;11.038;2023-05-14T03:19:19;11.77;;;9.73;;
30380;SDS011;17169;50.966;11.038;2023-05-14T03:22:21;14.05;;;10.00;;
30380;SDS011;17169;50.966;11.038;2023-05-14T03:25:25;12.55;;;10.18;;
30380;SDS011;17169;50.966;11.038;2023-05-14T03:28:28;11.45;;;9.45;;
30380;SDS011;17169;50.966;11.038;2023-05-14T03:31:30;11.35;;;8.98;;
30380;SDS011;17169;50.966;11.038;2023-05-14T03:34:32;11.20;;;9.98;;
30380;SDS011;17169;50.966;11.038;2023-05-14T03:37:35;13.82;;;9.80;;
30380;SDS011;17169;50.966;11.038;2023-05-14T03:40:38;12.05;;;9.10;;
30380;SDS011;17169;50.966;11.038;2023-05-14T03:43:41;11.95;;;8.13;;
30380;SDS011;17169;50.966;11.038;2023-05-14T03:46:43;9.48;;;7.78;;
30380;SDS011;17169;50.966;11.038;2023-05-14T03:49:46;10.80;;;7.82;;
30380;SDS011;17169;50.966;11.038;2023-05-14T03:52:48;12.02;;;7.93;;
30380;SDS011;17169;50.966;11.038;2023-05-14T03:55:53;10.05;;;8.60;;
30380;SDS011;17169;50.966;11.038;2023-05-14T03:58:56;10.15;;;8.18;;
30380;SDS011;17169;50.966;11.038;2023-05-14T04:01:58;9.00;;;7.90;;
30380;SDS011;17169;50.966;11.038;2023-05-14T04:05:00;11.55;;;8.10;;
30380;SDS011;17169;50.966;11.038;2023-05-14T04:08:03;10.02;;;8.23;;
30380;SDS011;17169;50.966;11.038;2023-05-14T04:11:07;11.98;;;9.20;;
30380;SDS011;17169;50.966;11.038;2023-05-14T04:14:10;11.85;;;8.90;;
30380;SDS011;17169;50.966;11.038;2023-05-14T04:17:12;12.38;;;9.65;;
30380;SDS011;17169;50.966;11.038;2023-05-14T04:20:15;12.13;;;9.18;;
30380;SDS011;17169;50.966;11.038;2023-05-14T04:23:17;14.77;;;10.07;;
30380;SDS011;17169;50.966;11.038;2023-05-14T04:26:21;13.40;;;9.57;;
30380;SDS011;17169;50.966;11.038;2023-05-14T04:29:23;14.20;;;9.18;;
30380;SDS011;17169;50.966;11.038;2023-05-14T04:32:25;11.32;;;9.68;;
30380;SDS011;17169;50.966;11.038;2023-05-14T04:35:28;15.75;;;9.88;;
30380;SDS011;17169;50.966;11.038;2023-05-14T04:38:30;16.77;;;10.45;;
30380;SDS011;17169;50.966;11.038;2023-05-14T04:41:34;12.48;;;9.35;;
30380;SDS011;17169;50.966;11.038;2023-05-14T04:44:36;12.82;;;8.85;;
30380;SDS011;17169;50.966;11.038;2023-05-14T04:47:38;11.43;;;9.70;;
30380;SDS011;17169;50.966;11.038;2023-05-14T04:50:41;11.60;;;9.70;;
30380;SDS011;17169;50.966;11.038;2023-05-14T04:53:44;11.50;;;9.10;;
30380;SDS011;17169;50.966;11.038;2023-05-14T04:56:48;14.55;;;10.40;;
30380;SDS011;17169;50.966;11.038;2023-05-14T04:59:51;11.27;;;9.18;;
30380;SDS011;17169;50.966;11.038;2023-05-14T05:02:53;11.38;;;8.82;;
30380;SDS011;17169;50.966;11.038;2023-05-14T05:05:55;10.45;;;8.60;;
30380;SDS011;17169;50.966;11.038;2023-05-14T05:08:58;11.60;;;9.25;;
30380;SDS011;17169;50.966;11.038;2023-05-14T05:12:02;25.92;;;9.23;;
30380;SDS011;17169;50.966;11.038;2023-05-14T05:15:04;11.70;;;8.98;;
30380;SDS011;17169;50.966;11.038;2023-05-14T05:18:09;10.50;;;8.40;;
30380;SDS011;17169;50.966;11.038;2023-05-14T05:21:11;10.55;;;8.55;;
30380;SDS011;17169;50.966;11.038;2023-05-14T05:24:13;10.93;;;8.00;;
30380;SDS011;17169;50.966;11.038;2023-05-14T05:27:17;11.07;;;8.48;;
30380;SDS011;17169;50.966;11.038;2023-05-14T05:30:20;11.27;;;7.40;;
30380;SDS011;17169;50.966;11.038;2023-05-14T05:33:22;10.00;;;8.05;;
30380;SDS011;17169;50.966;11.038;2023-05-14T05:36:25;10.02;;;7.15;;
30380;SDS011;17169;50.966;11.038;2023-05-14T05:39:28;9.48;;;7.13;;
30380;SDS011;17169;50.966;11.038;2023-05-14T05:42:35;9.57;;;7.30;;
30380;SDS011;17169;50.966;11.038;2023-05-14T05:45:38;12.27;;;7.45;;
30380;SDS011;17169;50.966;11.038;2023-05-14T05:48:40;9.45;;;7.53;;
30380;SDS011;17169;50.966;11.038;2023-05-14T05:51:42;10.90;;;7.20;;
30380;SDS011;17169;50.966;11.038;2023-05-14T05:54:45;10.55;;;7.65;;
30380;SDS011;17169;50.966;11.038;2023-05-14T05:57:48;10.63;;;6.93;;
30380;SDS011;17169;50.966;11.038;2023-05-14T06:00:51;10.00;;;7.03;;
30380;SDS011;17169;50.966;11.038;2023-05-14T06:03:54;12.18;;;7.93;;
30380;SDS011;17169;50.966;11.038;2023-05-14T06:06:57;10.50;;;7.28;;
30380;SDS011;17169;50.966;11.038;2023-05-14T06:09:59;8.75;;;7.13;;
30380;SDS011;17169;50.966;11.038;2023-05-14T06:13:03;9.40;;;7.45;;
30380;SDS011;17169;50.966;11.038;2023-05-14T06:16:06;11.87;;;7.03;;
30380;SDS011;17169;50.966;11.038;2023-05-14T06:19:08;11.18;;;7.72;;
30380;SDS011;17169;50.966;11.038;2023-05-14T06:22:11;12.60;;;7.60;;
30380;SDS011;17169;50.966;11.038;2023-05-14T06:25:14;9.93;;;7.13;;
30380;SDS011;17169;50.966;11.038;2023-05-14T06:28:18;8.43;;;7.10;;
30380;SDS011;17169;50.966;11.038;2023-05-14T06:31:20;10.13;;;8.00;;
30380;SDS011;17169;50.966;11.038;2023-05-14T06:34:22;11.88;;;7.53;;
30380;SDS011;17169;50.966;11.038;2023-05-14T06:37:25;10.60;;;7.50;;
30380;SDS011;17169;50.966;11.038;2023-05-14T06:40:27;9.38;;;7.35;;
30380;SDS011;17169;50.966;11.038;2023-05-14T06:43:31;9.38;;;7.50;;
30380;SDS011;17169;50.966;11.038;2023-05-14T06:46:33;10.00;;;7.30;;
30380;SDS011;17169;50.966;11.038;2023-05-14T06:49:35;9.77;;;7.68;;
30380;SDS011;17169;50.966;11.038;2023-05-14T06:52:38;11.75;;;7.88;;
30380;SDS011;17169;50.966;11.038;2023-05-14T06:55:40;9.35;;;7.00;;
30380;SDS011;17169;50.966;11.038;2023-05-14T06:58:44;15.68;;;6.85;;
30380;SDS011;17169;50.966;11.038;2023-05-14T07:01:46;10.40;;;7.35;;
30380;SDS011;17169;50.966;11.038;2023-05-14T07:04:49;8.45;;;6.97;;
30380;SDS011;17169;50.966;11.038;2023-05-14T07:07:51;8.85;;;6.55;;
30380;SDS011;17169;50.966;11.038;2023-05-14T07:10:53;10.77;;;6.88;;
30380;SDS011;17169;50.966;11.038;2023-05-14T07:13:58;11.75;;;6.93;;
30380;SDS011;17169;50.966;11.038;2023-05-14T07:17:00;9.85;;;6.60;;
30380;SDS011;17169;50.966;11.038;2023-05-14T07:20:03;10.95;;;7.05;;
30380;SDS011;17169;50.966;11.038;2023-05-14T07:23:06;10.48;;;6.97;;
30380;SDS011;17169;50.966;11.038;2023-05-14T07:26:08;10.80;;;6.45;;
30380;SDS011;17169;50.966;11.038;2023-05-14T07:29:12;10.52;;;6.70;;
30380;SDS011;17169;50.966;11.038;2023-05-14T07:32:15;10.68;;;6.47;;
30380;SDS011;17169;50.966;11.038;2023-05-14T07:35:17;12.40;;;7.00;;
30380;SDS011;17169;50.966;11.038;2023-05-14T07:38:19;12.05;;;7.40;;
30380;SDS011;17169;50.966;11.038;2023-05-14T07:41:22;9.88;;;5.70;;
30380;SDS011;17169;50.966;11.038;2023-05-14T07:44:26;8.02;;;5.65;;
30380;SDS011;17169;50.966;11.038;2023-05-14T07:47:28;9.23;;;5.90;;
30380;SDS011;17169;50.966;11.038;2023-05-14T07:50:30;12.80;;;5.97;;
30380;SDS011;17169;50.966;11.038;2023-05-14T07:53:33;7.90;;;5.43;;
30380;SDS011;17169;50.966;11.038;2023-05-14T07:56:35;8.40;;;5.97;;
30380;SDS011;17169;50.966;11.038;2023-05-14T07:59:39;9.35;;;5.90;;
30380;SDS011;17169;50.966;11.038;2023-05-14T08:02:41;11.27;;;5.18;;
30380;SDS011;17169;50.966;11.038;2023-05-14T08:05:44;10.48;;;4.75;;
30380;SDS011;17169;50.966;11.038;2023-05-14T08:08:46;6.90;;;4.32;;
30380;SDS011;17169;50.966;11.038;2023-05-14T08:11:49;7.15;;;4.93;;
30380;SDS011;17169;50.966;11.038;2023-05-14T08:14:52;7.32;;;4.88;;
30380;SDS011;17169;50.966;11.038;2023-05-14T08:17:55;5.35;;;3.78;;
30380;SDS011;17169;50.966;11.038;2023-05-14T08:21:02;5.03;;;3.38;;
30380;SDS011;17169;50.966;11.038;2023-05-14T08:24:05;4.07;;;2.70;;
30380;SDS011;17169;50.966;11.038;2023-05-14T08:27:08;5.63;;;3.03;;
30380;SDS011;17169;50.966;11.038;2023-05-14T08:30:12;6.15;;;3.33;;
30380;SDS011;17169;50.966;11.038;2023-05-14T08:33:15;4.33;;;2.97;;
30380;SDS011;17169;50.966;11.038;2023-05-14T08:36:17;4.72;;;3.10;;
30380;SDS011;17169;50.966;11.038;2023-05-14T08:39:20;8.18;;;4.93;;
30380;SDS011;17169;50.966;11.038;2023-05-14T08:42:22;5.15;;;3.67;;
30380;SDS011;17169;50.966;11.038;2023-05-14T08:45:27;5.68;;;3.53;;
30380;SDS011;17169;50.966;11.038;2023-05-14T08:48:33;9.43;;;3.15;;
30380;SDS011;17169;50.966;11.038;2023-05-14T08:51:37;5.43;;;3.67;;
30380;SDS011;17169;50.966;11.038;2023-05-14T08:54:40;6.25;;;4.07;;
30380;SDS011;17169;50.966;11.038;2023-05-14T08:57:42;5.57;;;3.78;;
30380;SDS011;17169;50.966;11.038;2023-05-14T09:00:46;8.07;;;3.53;;
30380;SDS011;17169;50.966;11.038;2023-05-14T09:03:49;6.25;;;3.50;;
30380;SDS011;17169;50.966;11.038;2023-05-14T09:06:53;6.68;;;3.30;;
30380;SDS011;17169;50.966;11.038;2023-05-14T09:09:56;5.88;;;3.70;;
30380;SDS011;17169;50.966;11.038;2023-05-14T09:12:59;8.80;;;5.47;;
30380;SDS011;17169;50.966;11.038;2023-05-14T09:16:03;23.10;;;14.60;;
30380;SDS011;17169;50.966;11.038;2023-05-14T09:19:06;6.90;;;4.20;;
30380;SDS011;17169;50.966;11.038;2023-05-14T09:22:10;5.60;;;3.75;;
30380;SDS011;17169;50.966;11.038;2023-05-14T09:25:13;7.93;;;4.30;;
30380;SDS011;17169;50.966;11.038;2023-05-14T09:28:16;6.68;;;4.25;;
30380;SDS011;17169;50.966;11.038;2023-05-14T09:31:22;5.53;;;3.63;;
30380;SDS011;17169;50.966;11.038;2023-05-14T09:34:25;6.55;;;4.03;;
30380;SDS011;17169;50.966;11.038;2023-05-14T09:37:28;7.90;;;4.53;;
30380;SDS011;17169;50.966;11.038;2023-05-14T09:40:31;6.88;;;4.38;;
30380;SDS011;17169;50.966;11.038;2023-05-14T09:43:33;7.75;;;3.90;;
30380;SDS011;17169;50.966;11.038;2023-05-14T09:46:37;7.80;;;4.47;;
30380;SDS011;17169;50.966;11.038;2023-05-14T09:49:39;9.63;;;4.20;;
30380;SDS011;17169;50.966;11.038;2023-05-14T09:52:41;16.85;;;4.32;;
30380;SDS011;17169;50.966;11.038;2023-05-14T09:55:44;6.43;;;4.10;;
30380;SDS011;17169;50.966;11.038;2023-05-14T09:58:47;6.10;;;4.03;;
30380;SDS011;17169;50.966;11.038;2023-05-14T10:01:50;9.93;;;3.60;;
30380;SDS011;17169;50.966;11.038;2023-05-14T10:04:54;6.35;;;4.25;;
30380;SDS011;17169;50.966;11.038;2023-05-14T10:08:04;7.22;;;3.50;;
30380;SDS011;17169;50.966;11.038;2023-05-14T10:11:12;6.38;;;3.63;;
30380;SDS011;17169;50.966;11.038;2023-05-14T10:14:17;5.63;;;3.50;;
30380;SDS011;17169;50.966;11.038;2023-05-14T10:17:24;6.25;;;3.65;;
30380;SDS011;17169;50.966;11.038;2023-05-14T10:20:31;7.10;;;3.58;;
30380;SDS011;17169;50.966;11.038;2023-05-14T10:23:35;6.28;;;3.60;;
30380;SDS011;17169;50.966;11.038;2023-05-14T10:26:39;4.82;;;2.90;;
30380;SDS011;17169;50.966;11.038;2023-05-14T10:29:42;4.43;;;3.25;;
30380;SDS011;17169;50.966;11.038;2023-05-14T10:33:07;4.97;;;3.33;;
30380;SDS011;17169;50.966;11.038;2023-05-14T10:36:12;6.57;;;3.40;;
30380;SDS011;17169;50.966;11.038;2023-05-14T10:39:14;6.15;;;3.10;;
30380;SDS011;17169;50.966;11.038;2023-05-14T10:42:17;5.18;;;3.40;;
30380;SDS011;17169;50.966;11.038;2023-05-14T10:45:20;5.72;;;3.47;;
30380;SDS011;17169;50.966;11.038;2023-05-14T10:48:26;5.38;;;2.85;;
30380;SDS011;17169;50.966;11.038;2023-05-14T10:51:28;5.55;;;3.13;;
30380;SDS011;17169;50.966;11.038;2023-05-14T10:54:33;6.68;;;2.90;;
30380;SDS011;17169;50.966;11.038;2023-05-14T10:57:36;5.53;;;2.90;;
30380;SDS011;17169;50.966;11.038;2023-05-14T11:00:40;5.13;;;3.40;;
30380;SDS011;17169;50.966;11.038;2023-05-14T11:03:44;7.25;;;3.00;;
30380;SDS011;17169;50.966;11.038;2023-05-14T11:06:47;5.10;;;3.28;;
30380;SDS011;17169;50.966;11.038;2023-05-14T11:09:50;5.38;;;3.22;;
30380;SDS011;17169;50.966;11.038;2023-05-14T11:12:52;4.97;;;3.10;;
30380;SDS011;17169;50.966;11.038;2023-05-14T11:15:56;7.30;;;3.22;;
30380;SDS011;17169;50.966;11.038;2023-05-14T11:19:03;5.05;;;3.08;;
30380;SDS011;17169;50.966;11.038;2023-05-14T11:22:06;4.63;;;3.22;;
30380;SDS011;17169;50.966;11.038;2023-05-14T11:25:08;6.10;;;3.58;;
30380;SDS011;17169;50.966;11.038;2023-05-14T11:28:13;5.55;;;3.20;;
30380;SDS011;17169;50.966;11.038;2023-05-14T11:31:16;5.85;;;3.03;;
30380;SDS011;17169;50.966;11.038;2023-05-14T11:34:20;5.25;;;2.97;;
30380;SDS011;17169;50.966;11.038;2023-05-14T11:37:22;5.82;;;2.80;;
30380;SDS011;17169;50.966;11.038;2023-05-14T11:40:24;4.18;;;2.75;;
30380;SDS011;17169;50.966;11.038;2023-05-14T11:43:27;5.97;;;3.28;;
30380;SDS011;17169;50.966;11.038;2023-05-14T11:46:30;7.47;;;3.10;;
30380;SDS011;17169;50.966;11.038;2023-05-14T11:49:33;5.28;;;3.10;;
30380;SDS011;17169;50.966;11.038;2023-05-14T11:52:37;5.43;;;3.00;;
30380;SDS011;17169;50.966;11.038;2023-05-14T11:55:41;5.20;;;3.00;;
30380;SDS011;17169;50.966;11.038;2023-05-14T11:58:46;4.15;;;3.00;;
30380;SDS011;17169;50.966;11.038;2023-05-14T12:01:49;6.38;;;2.80;;
30380;SDS011;17169;50.966;11.038;2023-05-14T12:04:54;4.05;;;2.80;;
30380;SDS011;17169;50.966;11.038;2023-05-14T12:07:56;5.53;;;2.97;;
30380;SDS011;17169;50.966;11.038;2023-05-14T12:10:59;9.10;;;2.80;;
30380;SDS011;17169;50.966;11.038;2023-05-14T12:14:09;5.40;;;2.83;;
30380;SDS011;17169;50.966;11.038;2023-05-14T12:17:13;4.63;;;2.75;;
30380;SDS011;17169;50.966;11.038;2023-05-14T12:20:18;5.40;;;2.78;;
30380;SDS011;17169;50.966;11.038;2023-05-14T12:23:23;5.32;;;2.70;;
30380;SDS011;17169;50.966;11.038;2023-05-14T12:26:26;4.22;;;2.72;;
30380;SDS011;17169;50.966;11.038;2023-05-14T12:29:29;5.00;;;2.50;;
30380;SDS011;17169;50.966;11.038;2023-05-14T12:32:31;4.38;;;2.92;;
30380;SDS011;17169;50.966;11.038;2023-05-14T12:35:35;4.80;;;2.80;;
30380;SDS011;17169;50.966;11.038;2023-05-14T12:38:38;5.25;;;2.67;;
30380;SDS011;17169;50.966;11.038;2023-05-14T12:41:40;4.05;;;2.50;;
30380;SDS011;17169;50.966;11.038;2023-05-14T12:44:43;4.90;;;3.08;;
30380;SDS011;17169;50.966;11.038;2023-05-14T12:47:45;7.00;;;2.65;;
30380;SDS011;17169;50.966;11.038;2023-05-14T12:50:49;4.07;;;2.53;;
30380;SDS011;17169;50.966;11.038;2023-05-14T12:53:52;5.78;;;2.90;;
30380;SDS011;17169;50.966;11.038;2023-05-14T12:56:54;7.28;;;2.90;;
30380;SDS011;17169;50.966;11.038;2023-05-14T12:59:57;6.15;;;2.53;;
30380;SDS011;17169;50.966;11.038;2023-05-14T13:02:59;4.63;;;2.55;;
30380;SDS011;17169;50.966;11.038;2023-05-14T13:06:03;4.07;;;2.50;;
30380;SDS011;17169;50.966;11.038;2023-05-14T13:09:05;3.70;;;2.25;;
30380;SDS011;17169;50.966;11.038;2023-05-14T13:12:08;4.38;;;2.30;;
30380;SDS011;17169;50.966;11.038;2023-05-14T13:15:11;5.47;;;2.55;;
30380;SDS011;17169;50.966;11.038;2023-05-14T13:18:13;4.20;;;2.70;;
30380;SDS011;17169;50.966;11.038;2023-05-14T13:21:18;4.45;;;2.58;;
30380;SDS011;17169;50.966;11.038;2023-05-14T13:24:20;5.35;;;2.50;;
30380;SDS011;17169;50.966;11.038;2023-05-14T13:27:24;5.43;;;2.85;;
30380;SDS011;17169;50.966;11.038;2023-05-14T13:30:27;6.22;;;2.53;;
30380;SDS011;17169;50.966;11.038;2023-05-14T13:33:29;3.80;;;2.35;;
30380;SDS011;17169;50.966;11.038;2023-05-14T13:36:33;5.05;;;2.70;;
30380;SDS011;17169;50.966;11.038;2023-05-14T13:39:39;4.38;;;2.83;;
30380;SDS011;17169;50.966;11.038;2023-05-14T13:42:41;3.78;;;2.30;;
30380;SDS011;17169;50.966;11.038;2023-05-14T13:45:43;7.00;;;2.42;;
30380;SDS011;17169;50.966;11.038;2023-05-14T13:48:46;4.50;;;2.55;;
30380;SDS011;17169;50.966;11.038;2023-05-14T13:51:50;3.92;;;2.47;;
30380;SDS011;17169;50.966;11.038;2023-05-14T13:54:52;4.70;;;2.80;;
30380;SDS011;17169;50.966;11.038;2023-05-14T13:57:54;3.53;;;2.28;;
30380;SDS011;17169;50.966;11.038;2023-05-14T14:00:58;4.25;;;2.53;;
30380;SDS011;17169;50.966;11.038;2023-05-14T14:04:01;6.03;;;2.63;;
30380;SDS011;17169;50.966;11.038;2023-05-14T14:07:04;4.72;;;2.67;;
30380;SDS011;17169;50.966;11.038;2023-05-14T14:10:08;4.50;;;2.50;;
30380;SDS011;17169;50.966;11.038;2023-05-14T14:13:11;5.05;;;2.55;;
30380;SDS011;17169;50.966;11.038;2023-05-14T14:16:13;4.53;;;2.42;;
30380;SDS011;17169;50.966;11.038;2023-05-14T14:19:16;6.75;;;2.42;;
30380;SDS011;17169;50.966;11.038;2023-05-14T14:22:20;8.85;;;2.60;;
30380;SDS011;17169;50.966;11.038;2023-05-14T14:25:22;3.85;;;2.75;;
30380;SDS011;17169;50.966;11.038;2023-05-14T14:28:24;6.10;;;2.33;;
30380;SDS011;17169;50.966;11.038;2023-05-14T14:31:27;4.25;;;2.53;;
30380;SDS011;17169;50.966;11.038;2023-05-14T14:34:29;7.60;;;2.90;;
30380;SDS011;17169;50.966;11.038;2023-05-14T14:37:33;5.60;;;2.60;;
30380;SDS011;17169;50.966;11.038;2023-05-14T14:40:35;6.95;;;2.85;;
30380;SDS011;17169;50.966;11.038;2023-05-14T14:43:38;8.80;;;2.95;;
30380;SDS011;17169;50.966;11.038;2023-05-14T14:46:42;12.30;;;3.03;;
30380;SDS011;17169;50.966;11.038;2023-05-14T14:49:45;5.07;;;3.33;;
30380;SDS011;17169;50.966;11.038;2023-05-14T14:52:48;8.23;;;3.55;;
30380;SDS011;17169;50.966;11.038;2023-05-14T14:55:51;5.68;;;3.35;;
30380;SDS011;17169;50.966;11.038;2023-05-14T14:58:54;7.78;;;3.38;;
30380;SDS011;17169;50.966;11.038;2023-05-14T15:01:56;11.35;;;3.50;;
30380;SDS011;17169;50.966;11.038;2023-05-14T15:04:59;5.07;;;2.97;;
30380;SDS011;17169;50.966;11.038;2023-05-14T15:08:03;4.95;;;2.95;;
30380;SDS011;17169;50.966;11.038;2023-05-14T15:11:06;4.77;;;2.77;;
30380;SDS011;17169;50.966;11.038;2023-05-14T15:14:08;12.65;;;3.45;;
30380;SDS011;17169;50.966;11.038;2023-05-14T15:17:11;6.25;;;3.50;;
30380;SDS011;17169;50.966;11.038;2023-05-14T15:20:13;6.78;;;3.00;;
30380;SDS011;17169;50.966;11.038;2023-05-14T15:23:17;4.47;;;2.72;;
30380;SDS011;17169;50.966;11.038;2023-05-14T15:26:19;4.90;;;3.10;;
30380;SDS011;17169;50.966;11.038;2023-05-14T15:29:22;8.90;;;3.17;;
30380;SDS011;17169;50.966;11.038;2023-05-14T15:32:24;7.85;;;2.80;;
30380;SDS011;17169;50.966;11.038;2023-05-14T15:35:27;7.28;;;3.30;;
30380;SDS011;17169;50.966;11.038;2023-05-14T15:38:31;6.22;;;3.00;;
30380;SDS011;17169;50.966;11.038;2023-05-14T15:41:34;3.95;;;2.75;;
30380;SDS011;17169;50.966;11.038;2023-05-14T15:44:36;9.57;;;2.65;;
30380;SDS011;17169;50.966;11.038;2023-05-14T15:47:39;4.18;;;2.63;;
30380;SDS011;17169;50.966;11.038;2023-05-14T15:50:41;3.55;;;2.60;;
30380;SDS011;17169;50.966;11.038;2023-05-14T15:53:45;4.80;;;2.78;;
30380;SDS011;17169;50.966;11.038;2023-05-14T15:56:47;5.35;;;2.90;;
30380;SDS011;17169;50.966;11.038;2023-05-14T15:59:50;6.22;;;2.90;;
30380;SDS011;17169;50.966;11.038;2023-05-14T16:02:52;5.60;;;2.70;;
30380;SDS011;17169;50.966;11.038;2023-05-14T16:05:55;4.05;;;2.88;;
30380;SDS011;17169;50.966;11.038;2023-05-14T16:08:58;5.03;;;2.70;;
30380;SDS011;17169;50.966;11.038;2023-05-14T16:12:02;5.40;;;2.55;;
30380;SDS011;17169;50.966;11.038;2023-05-14T16:15:06;7.88;;;2.33;;
30380;SDS011;17169;50.966;11.038;2023-05-14T16:18:09;10.80;;;3.00;;
30380;SDS011;17169;50.966;11.038;2023-05-14T16:21:11;5.53;;;2.72;;
30380;SDS011;17169;50.966;11.038;2023-05-14T16:24:15;5.80;;;2.90;;
30380;SDS011;17169;50.966;11.038;2023-05-14T16:27:19;6.10;;;3.20;;
30380;SDS011;17169;50.966;11.038;2023-05-14T16:30:21;10.40;;;3.30;;
30380;SDS011;17169;50.966;11.038;2023-05-14T16:33:23;8.10;;;2.80;;
30380;SDS011;17169;50.966;11.038;2023-05-14T16:36:26;7.95;;;3.63;;
30380;SDS011;17169;50.966;11.038;2023-05-14T16:39:29;4.75;;;2.95;;
30380;SDS011;17169;50.966;11.038;2023-05-14T16:42:32;6.20;;;3.20;;
30380;SDS011;17169;50.966;11.038;2023-05-14T16:45:34;6.05;;;3.25;;
30380;SDS011;17169;50.966;11.038;2023-05-14T16:48:37;7.00;;;3.25;;
30380;SDS011;17169;50.966;11.038;2023-05-14T16:51:39;5.82;;;3.72;;
30380;SDS011;17169;50.966;11.038;2023-05-14T16:54:44;10.52;;;3.42;;
30380;SDS011;17169;50.966;11.038;2023-05-14T16:57:47;8.68;;;3.60;;
30380;SDS011;17169;50.966;11.038;2023-05-14T17:00:49;10.00;;;3.90;;
30380;SDS011;17169;50.966;11.038;2023-05-14T17:03:51;7.15;;;3.90;;
30380;SDS011;17169;50.966;11.038;2023-05-14T17:06:54;8.02;;;3.80;;
30380;SDS011;17169;50.966;11.038;2023-05-14T17:09:58;6.18;;;3.63;;
30380;SDS011;17169;50.966;11.038;2023-05-14T17:13:00;6.45;;;4.13;;
30380;SDS011;17169;50.966;11.038;2023-05-14T17:16:03;6.65;;;4.20;;
30380;SDS011;17169;50.966;11.038;2023-05-14T17:19:05;5.80;;;3.78;;
30380;SDS011;17169;50.966;11.038;2023-05-14T17:22:08;6.13;;;3.45;;
30380;SDS011;17169;50.966;11.038;2023-05-14T17:25:11;12.98;;;5.00;;
30380;SDS011;17169;50.966;11.038;2023-05-14T17:28:14;6.45;;;4.13;;
30380;SDS011;17169;50.966;11.038;2023-05-14T17:31:16;7.85;;;4.07;;
30380;SDS011;17169;50.966;11.038;2023-05-14T17:34:18;5.53;;;3.95;;
30380;SDS011;17169;50.966;11.038;2023-05-14T17:37:21;7.45;;;3.88;;
30380;SDS011;17169;50.966;11.038;2023-05-14T17:40:25;8.25;;;4.00;;
30380;SDS011;17169;50.966;11.038;2023-05-14T17:43:27;6.15;;;3.78;;
30380;SDS011;17169;50.966;11.038;2023-05-14T17:46:29;5.88;;;3.55;;
30380;SDS011;17169;50.966;11.038;2023-05-14T17:49:33;6.68;;;3.63;;
30380;SDS011;17169;50.966;11.038;2023-05-14T17:52:35;6.47;;;3.67;;
30380;SDS011;17169;50.966;11.038;2023-05-14T17:55:39;5.65;;;3.22;;
30380;SDS011;17169;50.966;11.038;2023-05-14T17:58:43;6.68;;;3.15;;